sensor_id;sensor_type;location;lat;lon;timestamp;pressure;altitude;pressure_sealevel;temperature;humidity
50103;BME280;35993;52.604;10.078;2023-05-07T00:00:41;101641.81;;;10.26;100.00
50103;BME280;35993;52.604;10.078;2023-05-07T00:03:07;101645.16;;;10.28;100.00
50103;BME280;35993;52.604;10.078;2023-05-07T00:05:33;101646.78;;;10.22;100.00
50103;BME280;35993;52.604;10.078;2023-05-07T00:07:58;101641.44;;;10.14;100.00
50103;BME280;35993;52.604;10.078;2023-05-07T00:10:24;101636.69;;;10.16;100.00
50103;BME280;35993;52.604;10.078;2023-05-07T00:12:50;101638.56;;;10.15;100.00
50103;BME280;35993;52.604;10.078;2023-05-07T00:15:16;101643.59;;;10.19;100.00
50103;BME280;35993;52.604;10.078;2023-05-07T00:17:41;101650.31;;;10.23;100.00
50103;BME280;35993;52.604;10.078;2023-05-07T00:20:07;101646.19;;;10.27;100.00
50103;BME280;35993;52.604;10.078;2023-05-07T00:22:33;101647.69;;;10.29;100.00
50103;BME280;35993;52.604;10.078;2023-05-07T00:24:59;101649.47;;;10.37;100.00
50103;BME280;35993;52.604;10.078;2023-05-07T00:27:25;101650.66;;;10.35;100.00
50103;BME280;35993;52.604;10.078;2023-05-07T00:29:51;101652.81;;;10.24;100.00
50103;BME280;35993;52.604;10.078;2023-05-07T00:32:16;101657.22;;;10.25;100.00
50103;BME280;35993;52.604;10.078;2023-05-07T00:34:42;101664.06;;;10.36;100.00
50103;BME280;35993;52.604;10.078;2023-05-07T00:37:08;101657.44;;;10.24;100.00
50103;BME280;35993;52.604;10.078;2023-05-07T00:39:35;101655.47;;;10.17;100.00
50103;BME280;35993;52.604;10.078;2023-05-07T00:42:00;101651.59;;;10.05;100.00
50103;BME280;35993;52.604;10.078;2023-05-07T00:44:26;101660.00;;;10.10;100.00
50103;BME280;35993;52.604;10.078;2023-05-07T00:46:53;101644.75;;;10.09;100.00
50103;BME280;35993;52.604;10.078;2023-05-07T00:49:19;101653.91;;;10.08;100.00
50103;BME280;35993;52.604;10.078;2023-05-07T00:51:45;101656.59;;;10.23;100.00
50103;BME280;35993;52.604;10.078;2023-05-07T00:54:12;101644.78;;;10.31;100.00
50103;BME280;35993;52.604;10.078;2023-05-07T00:56:38;101647.22;;;10.26;100.00
50103;BME280;35993;52.604;10.078;2023-05-07T00:59:06;101647.88;;;10.28;100.00
50103;BME280;35993;52.604;10.078;2023-05-07T01:01:31;101647.78;;;10.36;100.00
50103;BME280;35993;52.604;10.078;2023-05-07T01:03:57;101646.81;;;10.44;100.00
50103;BME280;35993;52.604;10.078;2023-05-07T01:06:24;101650.84;;;10.33;100.00
50103;BME280;35993;52.604;10.078;2023-05-07T01:08:51;101642.91;;;10.31;100.00
50103;BME280;35993;52.604;10.078;2023-05-07T01:11:18;101646.06;;;10.35;100.00
50103;BME280;35993;52.604;10.078;2023-05-07T01:13:46;101648.25;;;10.25;100.00
50103;BME280;35993;52.604;10.078;2023-05-07T01:16:12;101644.59;;;10.32;100.00
50103;BME280;35993;52.604;10.078;2023-05-07T01:18:38;101644.38;;;10.49;100.00
50103;BME280;35993;52.604;10.078;2023-05-07T01:21:04;101645.84;;;10.52;100.00
50103;BME280;35993;52.604;10.078;2023-05-07T01:23:30;101654.19;;;10.50;100.00
50103;BME280;35993;52.604;10.078;2023-05-07T01:25:56;101643.50;;;10.48;100.00
50103;BME280;35993;52.604;10.078;2023-05-07T01:28:24;101642.63;;;10.41;100.00
50103;BME280;35993;52.604;10.078;2023-05-07T01:30:55;101638.06;;;10.48;100.00
50103;BME280;35993;52.604;10.078;2023-05-07T01:33:22;101638.22;;;10.40;99.82
50103;BME280;35993;52.604;10.078;2023-05-07T01:35:51;101636.63;;;10.31;100.00
50103;BME280;35993;52.604;10.078;2023-05-07T01:38:18;101646.06;;;10.35;99.90
50103;BME280;35993;52.604;10.078;2023-05-07T01:40:45;101641.22;;;10.30;99.79
50103;BME280;35993;52.604;10.078;2023-05-07T01:43:11;101638.50;;;10.30;100.00
50103;BME280;35993;52.604;10.078;2023-05-07T01:45:37;101641.06;;;10.17;100.00
50103;BME280;35993;52.604;10.078;2023-05-07T01:48:04;101636.94;;;10.21;100.00
50103;BME280;35993;52.604;10.078;2023-05-07T01:50:30;101636.53;;;10.24;100.00
50103;BME280;35993;52.604;10.078;2023-05-07T01:52:57;101641.97;;;10.24;100.00
50103;BME280;35993;52.604;10.078;2023-05-07T01:55:23;101647.13;;;10.19;100.00
50103;BME280;35993;52.604;10.078;2023-05-07T01:57:49;101638.38;;;10.17;100.00
50103;BME280;35993;52.604;10.078;2023-05-07T02:00:15;101650.22;;;10.31;100.00
50103;BME280;35993;52.604;10.078;2023-05-07T02:02:41;101645.25;;;10.35;100.00
50103;BME280;35993;52.604;10.078;2023-05-07T02:05:12;101646.38;;;10.40;99.70
50103;BME280;35993;52.604;10.078;2023-05-07T02:07:39;101644.63;;;10.17;99.57
50103;BME280;35993;52.604;10.078;2023-05-07T02:10:05;101649.50;;;10.07;100.00
50103;BME280;35993;52.604;10.078;2023-05-07T02:12:31;101650.94;;;10.03;100.00
50103;BME280;35993;52.604;10.078;2023-05-07T02:14:57;101651.69;;;9.97;100.00
50103;BME280;35993;52.604;10.078;2023-05-07T02:17:22;101651.69;;;9.97;100.00
50103;BME280;35993;52.604;10.078;2023-05-07T02:19:48;101650.59;;;9.91;100.00
50103;BME280;35993;52.604;10.078;2023-05-07T02:22:13;101659.56;;;9.92;100.00
50103;BME280;35993;52.604;10.078;2023-05-07T02:24:39;101659.75;;;9.90;100.00
50103;BME280;35993;52.604;10.078;2023-05-07T02:27:04;101657.50;;;9.94;100.00
50103;BME280;35993;52.604;10.078;2023-05-07T02:29:30;101655.06;;;9.99;100.00
50103;BME280;35993;52.604;10.078;2023-05-07T02:31:56;101655.69;;;10.01;100.00
50103;BME280;35993;52.604;10.078;2023-05-07T02:34:21;101653.66;;;10.03;100.00
50103;BME280;35993;52.604;10.078;2023-05-07T02:36:47;101665.53;;;10.02;100.00
50103;BME280;35993;52.604;10.078;2023-05-07T02:39:16;101662.16;;;10.00;100.00
50103;BME280;35993;52.604;10.078;2023-05-07T02:41:42;101657.56;;;10.00;100.00
50103;BME280;35993;52.604;10.078;2023-05-07T02:44:07;101657.50;;;9.94;100.00
50103;BME280;35993;52.604;10.078;2023-05-07T02:46:33;101657.50;;;9.94;100.00
50103;BME280;35993;52.604;10.078;2023-05-07T02:49:03;101659.28;;;9.87;100.00
50103;BME280;35993;52.604;10.078;2023-05-07T02:51:30;101663.97;;;9.78;100.00
50103;BME280;35993;52.604;10.078;2023-05-07T02:53:58;101671.00;;;9.72;100.00
50103;BME280;35993;52.604;10.078;2023-05-07T02:56:26;101668.56;;;9.77;100.00
50103;BME280;35993;52.604;10.078;2023-05-07T02:58:51;101661.25;;;9.78;100.00
50103;BME280;35993;52.604;10.078;2023-05-07T03:01:19;101654.13;;;9.77;100.00
50103;BME280;35993;52.604;10.078;2023-05-07T03:03:52;101661.06;;;9.79;100.00
50103;BME280;35993;52.604;10.078;2023-05-07T03:06:18;101663.22;;;9.84;100.00
50103;BME280;35993;52.604;10.078;2023-05-07T03:08:43;101656.50;;;9.80;100.00
50103;BME280;35993;52.604;10.078;2023-05-07T03:11:09;101653.38;;;9.83;100.00
50103;BME280;35993;52.604;10.078;2023-05-07T03:13:35;101651.16;;;9.87;100.00
50103;BME280;35993;52.604;10.078;2023-05-07T03:16:00;101647.88;;;9.91;100.00
50103;BME280;35993;52.604;10.078;2023-05-07T03:18:26;101650.59;;;9.91;100.00
50103;BME280;35993;52.604;10.078;2023-05-07T03:20:52;101650.88;;;9.81;100.00
50103;BME280;35993;52.604;10.078;2023-05-07T03:23:18;101653.13;;;9.78;100.00
50103;BME280;35993;52.604;10.078;2023-05-07T03:25:43;101651.91;;;9.80;100.00
50103;BME280;35993;52.604;10.078;2023-05-07T03:28:09;101646.19;;;9.75;100.00
50103;BME280;35993;52.604;10.078;2023-05-07T03:30:44;101646.66;;;9.79;100.00
50103;BME280;35993;52.604;10.078;2023-05-07T03:33:09;101647.78;;;9.84;100.00
50103;BME280;35993;52.604;10.078;2023-05-07T03:35:35;101646.94;;;9.84;100.00
50103;BME280;35993;52.604;10.078;2023-05-07T03:38:01;101644.63;;;9.81;100.00
50103;BME280;35993;52.604;10.078;2023-05-07T03:40:29;101646.38;;;9.89;100.00
50103;BME280;35993;52.604;10.078;2023-05-07T03:42:55;101652.84;;;9.88;100.00
50103;BME280;35993;52.604;10.078;2023-05-07T03:45:23;101647.59;;;9.86;100.00
50103;BME280;35993;52.604;10.078;2023-05-07T03:47:57;101653.59;;;9.81;100.00
50103;BME280;35993;52.604;10.078;2023-05-07T03:50:23;101649.00;;;9.82;100.00
50103;BME280;35993;52.604;10.078;2023-05-07T03:52:48;101648.34;;;9.80;100.00
50103;BME280;35993;52.604;10.078;2023-05-07T03:55:16;101655.75;;;9.71;100.00
50103;BME280;35993;52.604;10.078;2023-05-07T03:57:47;101663.78;;;9.64;100.00
50103;BME280;35993;52.604;10.078;2023-05-07T04:00:13;101651.72;;;9.67;100.00
50103;BME280;35993;52.604;10.078;2023-05-07T04:02:48;101649.84;;;9.67;100.00
50103;BME280;35993;52.604;10.078;2023-05-07T04:05:18;101645.66;;;9.65;100.00
50103;BME280;35993;52.604;10.078;2023-05-07T04:07:47;101645.75;;;9.57;100.00
50103;BME280;35993;52.604;10.078;2023-05-07T04:10:16;101647.59;;;9.56;100.00
50103;BME280;35993;52.604;10.078;2023-05-07T04:12:43;101656.31;;;9.51;100.00
50103;BME280;35993;52.604;10.078;2023-05-07T04:15:14;101662.19;;;9.55;100.00
50103;BME280;35993;52.604;10.078;2023-05-07T04:17:40;101660.81;;;9.59;100.00
50103;BME280;35993;52.604;10.078;2023-05-07T04:20:14;101664.16;;;9.46;100.00
50103;BME280;35993;52.604;10.078;2023-05-07T04:22:41;101671.91;;;9.49;100.00
50103;BME280;35993;52.604;10.078;2023-05-07T04:25:07;101657.34;;;9.50;100.00
50103;BME280;35993;52.604;10.078;2023-05-07T04:27:35;101670.22;;;9.48;100.00
50103;BME280;35993;52.604;10.078;2023-05-07T04:30:02;101667.63;;;9.40;100.00
50103;BME280;35993;52.604;10.078;2023-05-07T04:32:33;101673.41;;;9.37;100.00
50103;BME280;35993;52.604;10.078;2023-05-07T04:34:58;101680.59;;;9.45;100.00
50103;BME280;35993;52.604;10.078;2023-05-07T04:37:25;101687.78;;;9.52;100.00
50103;BME280;35993;52.604;10.078;2023-05-07T04:39:52;101695.78;;;9.54;100.00
50103;BME280;35993;52.604;10.078;2023-05-07T04:42:17;101692.19;;;9.54;100.00
50103;BME280;35993;52.604;10.078;2023-05-07T04:44:44;101696.41;;;9.56;100.00
50103;BME280;35993;52.604;10.078;2023-05-07T04:47:11;101698.38;;;9.62;100.00
50103;BME280;35993;52.604;10.078;2023-05-07T04:49:38;101684.91;;;9.54;100.00
50103;BME280;35993;52.604;10.078;2023-05-07T04:52:04;101699.84;;;9.50;100.00
50103;BME280;35993;52.604;10.078;2023-05-07T04:54:29;101702.00;;;9.55;100.00
50103;BME280;35993;52.604;10.078;2023-05-07T04:56:55;101704.25;;;9.51;100.00
50103;BME280;35993;52.604;10.078;2023-05-07T04:59:21;101703.78;;;9.47;100.00
50103;BME280;35993;52.604;10.078;2023-05-07T05:01:49;101699.69;;;9.51;100.00
50103;BME280;35993;52.604;10.078;2023-05-07T05:04:15;101705.75;;;9.54;100.00
50103;BME280;35993;52.604;10.078;2023-05-07T05:06:40;101705.47;;;9.48;100.00
50103;BME280;35993;52.604;10.078;2023-05-07T05:09:07;101711.56;;;9.50;100.00
50103;BME280;35993;52.604;10.078;2023-05-07T05:11:33;101708.47;;;9.54;100.00
50103;BME280;35993;52.604;10.078;2023-05-07T05:13:59;101708.09;;;9.57;100.00
50103;BME280;35993;52.604;10.078;2023-05-07T05:16:26;101714.63;;;9.62;99.55
50103;BME280;35993;52.604;10.078;2023-05-07T05:18:52;101718.03;;;9.64;99.41
50103;BME280;35993;52.604;10.078;2023-05-07T05:21:20;101726.88;;;9.58;99.04
50103;BME280;35993;52.604;10.078;2023-05-07T05:23:48;101720.34;;;9.67;99.05
50103;BME280;35993;52.604;10.078;2023-05-07T05:26:18;101721.22;;;9.68;98.97
50103;BME280;35993;52.604;10.078;2023-05-07T05:28:44;101715.13;;;9.66;99.11
50103;BME280;35993;52.604;10.078;2023-05-07T05:31:10;101715.66;;;9.61;98.66
50103;BME280;35993;52.604;10.078;2023-05-07T05:33:36;101719.59;;;9.59;99.20
50103;BME280;35993;52.604;10.078;2023-05-07T05:36:04;101720.25;;;9.61;98.89
50103;BME280;35993;52.604;10.078;2023-05-07T05:38:29;101723.50;;;9.56;99.01
50103;BME280;35993;52.604;10.078;2023-05-07T05:40:55;101729.41;;;9.60;99.07
50103;BME280;35993;52.604;10.078;2023-05-07T05:43:21;101727.84;;;9.65;98.92
50103;BME280;35993;52.604;10.078;2023-05-07T05:45:47;101730.38;;;9.67;98.73
50103;BME280;35993;52.604;10.078;2023-05-07T05:48:13;101737.47;;;9.68;98.40
50103;BME280;35993;52.604;10.078;2023-05-07T05:50:42;101739.72;;;9.64;98.37
50103;BME280;35993;52.604;10.078;2023-05-07T05:53:08;101734.56;;;9.70;97.99
50103;BME280;35993;52.604;10.078;2023-05-07T05:55:33;101738.41;;;9.75;97.64
50103;BME280;35993;52.604;10.078;2023-05-07T05:58:03;101738.97;;;9.71;97.91
50103;BME280;35993;52.604;10.078;2023-05-07T06:00:30;101742.13;;;9.74;98.62
50103;BME280;35993;52.604;10.078;2023-05-07T06:03:01;101746.25;;;9.70;97.58
50103;BME280;35993;52.604;10.078;2023-05-07T06:05:27;101746.72;;;9.74;97.77
50103;BME280;35993;52.604;10.078;2023-05-07T06:07:54;101743.75;;;9.83;98.14
50103;BME280;35993;52.604;10.078;2023-05-07T06:10:20;101742.41;;;9.79;97.52
50103;BME280;35993;52.604;10.078;2023-05-07T06:12:46;101746.53;;;9.75;98.12
50103;BME280;35993;52.604;10.078;2023-05-07T06:15:12;101748.47;;;9.66;98.05
50103;BME280;35993;52.604;10.078;2023-05-07T06:17:39;101738.41;;;9.75;97.98
50103;BME280;35993;52.604;10.078;2023-05-07T06:20:06;101736.91;;;9.88;97.09
50103;BME280;35993;52.604;10.078;2023-05-07T06:22:32;101736.31;;;9.92;96.76
50103;BME280;35993;52.604;10.078;2023-05-07T06:24:58;101725.03;;;9.89;96.76
50103;BME280;35993;52.604;10.078;2023-05-07T06:27:24;101726.41;;;9.84;96.30
50103;BME280;35993;52.604;10.078;2023-05-07T06:29:50;101743.47;;;9.78;96.54
50103;BME280;35993;52.604;10.078;2023-05-07T06:32:17;101739.81;;;9.86;96.35
50103;BME280;35993;52.604;10.078;2023-05-07T06:34:44;101738.28;;;9.98;96.44
50103;BME280;35993;52.604;10.078;2023-05-07T06:37:10;101746.81;;;9.95;95.82
50103;BME280;35993;52.604;10.078;2023-05-07T06:39:47;101732.22;;;9.96;95.60
50103;BME280;35993;52.604;10.078;2023-05-07T06:42:13;101746.34;;;9.92;95.88
50103;BME280;35993;52.604;10.078;2023-05-07T06:44:41;101738.28;;;9.98;95.91
50103;BME280;35993;52.604;10.078;2023-05-07T06:47:10;101742.97;;;10.05;96.40
50103;BME280;35993;52.604;10.078;2023-05-07T06:49:38;101737.28;;;9.99;96.56
50103;BME280;35993;52.604;10.078;2023-05-07T06:52:04;101737.75;;;10.03;96.74
50103;BME280;35993;52.604;10.078;2023-05-07T06:54:29;101750.56;;;9.94;96.95
50103;BME280;35993;52.604;10.078;2023-05-07T06:56:55;101750.66;;;9.86;97.05
50103;BME280;35993;52.604;10.078;2023-05-07T06:59:23;101747.94;;;9.86;96.89
50103;BME280;35993;52.604;10.078;2023-05-07T07:01:50;101752.06;;;9.97;97.01
50103;BME280;35993;52.604;10.078;2023-05-07T07:04:15;101740.25;;;10.05;96.50
50103;BME280;35993;52.604;10.078;2023-05-07T07:06:43;101754.28;;;10.08;96.86
50103;BME280;35993;52.604;10.078;2023-05-07T07:09:11;101747.09;;;10.15;96.82
50103;BME280;35993;52.604;10.078;2023-05-07T07:11:37;101751.31;;;10.18;96.42
50103;BME280;35993;52.604;10.078;2023-05-07T07:14:03;101758.84;;;10.23;96.80
50103;BME280;35993;52.604;10.078;2023-05-07T07:16:33;101744.06;;;10.25;96.31
50103;BME280;35993;52.604;10.078;2023-05-07T07:18:58;101748.47;;;10.26;96.98
50103;BME280;35993;52.604;10.078;2023-05-07T07:21:24;101751.47;;;10.31;96.97
50103;BME280;35993;52.604;10.078;2023-05-07T07:23:51;101749.22;;;10.35;96.92
50103;BME280;35993;52.604;10.078;2023-05-07T07:26:18;101757.34;;;10.35;97.01
50103;BME280;35993;52.604;10.078;2023-05-07T07:28:44;101754.16;;;10.31;96.90
50103;BME280;35993;52.604;10.078;2023-05-07T07:31:11;101764.41;;;10.29;96.57
50103;BME280;35993;52.604;10.078;2023-05-07T07:33:37;101765.22;;;10.30;97.36
50103;BME280;35993;52.604;10.078;2023-05-07T07:36:04;101770.25;;;10.33;97.22
50103;BME280;35993;52.604;10.078;2023-05-07T07:38:30;101777.69;;;10.39;97.27
50103;BME280;35993;52.604;10.078;2023-05-07T07:40:56;101772.44;;;10.38;96.89
50103;BME280;35993;52.604;10.078;2023-05-07T07:43:22;101770.66;;;10.30;97.14
50103;BME280;35993;52.604;10.078;2023-05-07T07:45:48;101768.59;;;10.32;96.76
50103;BME280;35993;52.604;10.078;2023-05-07T07:48:14;101772.53;;;10.29;96.31
50103;BME280;35993;52.604;10.078;2023-05-07T07:50:39;101779.81;;;10.29;96.83
50103;BME280;35993;52.604;10.078;2023-05-07T07:53:06;101772.34;;;10.31;96.88
50103;BME280;35993;52.604;10.078;2023-05-07T07:55:32;101778.25;;;10.35;96.96
50103;BME280;35993;52.604;10.078;2023-05-07T07:57:59;101785.06;;;10.45;96.63
50103;BME280;35993;52.604;10.078;2023-05-07T08:00:25;101786.75;;;10.46;96.29
50103;BME280;35993;52.604;10.078;2023-05-07T08:02:54;101782.25;;;10.24;96.09
50103;BME280;35993;52.604;10.078;2023-05-07T08:05:25;101780.78;;;10.36;96.55
50103;BME280;35993;52.604;10.078;2023-05-07T08:07:51;101785.25;;;10.44;96.25
50103;BME280;35993;52.604;10.078;2023-05-07T08:10:21;101790.97;;;10.49;96.45
50103;BME280;35993;52.604;10.078;2023-05-07T08:12:49;101790.47;;;10.30;96.79
50103;BME280;35993;52.604;10.078;2023-05-07T08:15:15;101792.75;;;10.42;97.21
50103;BME280;35993;52.604;10.078;2023-05-07T08:17:42;101798.19;;;10.42;96.75
50103;BME280;35993;52.604;10.078;2023-05-07T08:20:09;101798.09;;;10.50;96.92
50103;BME280;35993;52.604;10.078;2023-05-07T08:22:35;101789.00;;;10.43;96.45
50103;BME280;35993;52.604;10.078;2023-05-07T08:25:01;101791.66;;;10.36;96.43
50103;BME280;35993;52.604;10.078;2023-05-07T08:27:27;101794.53;;;10.35;96.54
50103;BME280;35993;52.604;10.078;2023-05-07T08:29:53;101790.50;;;10.45;96.23
50103;BME280;35993;52.604;10.078;2023-05-07T08:32:21;101800.97;;;10.48;96.68
50103;BME280;35993;52.604;10.078;2023-05-07T08:34:47;101790.00;;;10.57;96.14
50103;BME280;35993;52.604;10.078;2023-05-07T08:37:13;101798.72;;;10.52;95.47
50103;BME280;35993;52.604;10.078;2023-05-07T08:39:39;101796.75;;;10.61;95.65
50103;BME280;35993;52.604;10.078;2023-05-07T08:42:12;101796.31;;;10.79;96.01
50103;BME280;35993;52.604;10.078;2023-05-07T08:44:45;101800.25;;;10.76;94.30
50103;BME280;35993;52.604;10.078;2023-05-07T08:47:13;101799.91;;;10.64;93.78
50103;BME280;35993;52.604;10.078;2023-05-07T08:49:39;101791.31;;;10.61;93.83
50103;BME280;35993;52.604;10.078;2023-05-07T08:52:06;101783.13;;;10.76;93.51
50103;BME280;35993;52.604;10.078;2023-05-07T08:54:33;101799.22;;;10.77;93.34
50103;BME280;35993;52.604;10.078;2023-05-07T08:57:00;101802.97;;;10.76;92.37
50103;BME280;35993;52.604;10.078;2023-05-07T08:59:26;101796.25;;;10.72;91.71
50103;BME280;35993;52.604;10.078;2023-05-07T09:01:52;101797.44;;;10.85;91.64
50103;BME280;35993;52.604;10.078;2023-05-07T09:04:18;101797.81;;;11.03;91.38
50103;BME280;35993;52.604;10.078;2023-05-07T09:06:45;101795.56;;;11.07;89.96
50103;BME280;35993;52.604;10.078;2023-05-07T09:09:14;101795.72;;;11.20;90.80
50103;BME280;35993;52.604;10.078;2023-05-07T09:11:43;101805.94;;;11.18;90.15
50103;BME280;35993;52.604;10.078;2023-05-07T09:14:10;101805.47;;;11.14;90.41
50103;BME280;35993;52.604;10.078;2023-05-07T09:16:39;101802.56;;;11.16;90.05
50103;BME280;35993;52.604;10.078;2023-05-07T09:19:05;101810.38;;;11.04;89.89
50103;BME280;35993;52.604;10.078;2023-05-07T09:21:30;101807.69;;;11.26;89.99
50103;BME280;35993;52.604;10.078;2023-05-07T09:23:59;101798.78;;;11.39;88.69
50103;BME280;35993;52.604;10.078;2023-05-07T09:26:34;101804.28;;;11.45;88.91
50103;BME280;35993;52.604;10.078;2023-05-07T09:29:01;101816.34;;;11.36;88.76
50103;BME280;35993;52.604;10.078;2023-05-07T09:31:28;101814.28;;;11.38;89.05
50103;BME280;35993;52.604;10.078;2023-05-07T09:33:54;101815.25;;;11.52;89.12
50103;BME280;35993;52.604;10.078;2023-05-07T09:36:22;101814.50;;;11.65;88.38
50103;BME280;35993;52.604;10.078;2023-05-07T09:38:48;101810.13;;;11.71;87.80
50103;BME280;35993;52.604;10.078;2023-05-07T09:41:16;101817.47;;;11.70;86.27
50103;BME280;35993;52.604;10.078;2023-05-07T09:44:14;101812.28;;;11.75;86.58
50103;BME280;35993;52.604;10.078;2023-05-07T09:46:46;101812.28;;;11.75;86.91
50103;BME280;35993;52.604;10.078;2023-05-07T09:49:23;101809.81;;;11.80;87.35
50103;BME280;35993;52.604;10.078;2023-05-07T09:51:52;101815.84;;;12.04;87.83
50103;BME280;35993;52.604;10.078;2023-05-07T09:54:20;101807.84;;;11.96;86.55
50103;BME280;35993;52.604;10.078;2023-05-07T09:56:49;101804.91;;;11.98;86.62
50103;BME280;35993;52.604;10.078;2023-05-07T09:59:18;101811.41;;;11.96;86.72
50103;BME280;35993;52.604;10.078;2023-05-07T10:01:47;101814.97;;;11.97;86.25
50103;BME280;35993;52.604;10.078;2023-05-07T10:04:15;101815.28;;;11.87;86.19
50103;BME280;35993;52.604;10.078;2023-05-07T10:06:43;101815.16;;;11.95;86.54
50103;BME280;35993;52.604;10.078;2023-05-07T10:09:10;101814.81;;;12.05;86.41
50103;BME280;35993;52.604;10.078;2023-05-07T10:11:40;101813.16;;;12.11;85.18
50103;BME280;35993;52.604;10.078;2023-05-07T10:14:07;101811.28;;;12.11;85.43
50103;BME280;35993;52.604;10.078;2023-05-07T10:16:35;101805.88;;;12.18;84.50
50103;BME280;35993;52.604;10.078;2023-05-07T10:19:09;101815.41;;;12.36;83.94
50103;BME280;35993;52.604;10.078;2023-05-07T10:21:47;101810.00;;;12.49;84.02
50103;BME280;35993;52.604;10.078;2023-05-07T10:24:21;101797.25;;;12.56;82.65
50103;BME280;35993;52.604;10.078;2023-05-07T10:26:52;101802.13;;;12.74;81.86
50103;BME280;35993;52.604;10.078;2023-05-07T10:32:37;101798.16;;;12.84;80.33
50103;BME280;35993;52.604;10.078;2023-05-07T10:35:11;101794.19;;;12.86;79.88
50103;BME280;35993;52.604;10.078;2023-05-07T10:37:40;101798.38;;;12.75;80.21
50103;BME280;35993;52.604;10.078;2023-05-07T10:40:06;101804.94;;;13.01;80.42
50103;BME280;35993;52.604;10.078;2023-05-07T10:42:33;101815.22;;;13.13;79.33
50103;BME280;35993;52.604;10.078;2023-05-07T10:45:12;101814.97;;;12.94;78.66
50103;BME280;35993;52.604;10.078;2023-05-07T10:48:15;101804.28;;;12.86;78.23
50103;BME280;35993;52.604;10.078;2023-05-07T10:50:45;101806.56;;;12.89;78.71
50103;BME280;35993;52.604;10.078;2023-05-07T10:55:49;101815.84;;;13.08;78.84
50103;BME280;35993;52.604;10.078;2023-05-07T10:58:26;101804.28;;;12.92;77.90
50103;BME280;35993;52.604;10.078;2023-05-07T11:01:02;101815.44;;;13.24;77.06
50103;BME280;35993;52.604;10.078;2023-05-07T11:03:34;101815.19;;;12.99;77.78
50103;BME280;35993;52.604;10.078;2023-05-07T11:06:15;101821.91;;;12.97;78.84
50103;BME280;35993;52.604;10.078;2023-05-07T11:11:17;101818.66;;;13.41;77.01
50103;BME280;35993;52.604;10.078;2023-05-07T11:13:51;101825.13;;;13.87;76.11
50103;BME280;35993;52.604;10.078;2023-05-07T11:16:36;101822.00;;;13.90;74.46
50103;BME280;35993;52.604;10.078;2023-05-07T11:19:15;101818.88;;;13.73;74.69
50103;BME280;35993;52.604;10.078;2023-05-07T11:21:46;101815.06;;;13.88;74.80
50103;BME280;35993;52.604;10.078;2023-05-07T11:24:24;101826.00;;;13.88;74.41
50103;BME280;35993;52.604;10.078;2023-05-07T11:27:00;101815.50;;;13.91;74.12
50103;BME280;35993;52.604;10.078;2023-05-07T11:29:28;101814.81;;;14.09;73.74
50103;BME280;35993;52.604;10.078;2023-05-07T11:32:00;101810.00;;;14.05;73.21
50103;BME280;35993;52.604;10.078;2023-05-07T11:34:30;101812.09;;;13.96;73.75
50103;BME280;35993;52.604;10.078;2023-05-07T11:36:58;101814.16;;;14.21;74.56
50103;BME280;35993;52.604;10.078;2023-05-07T11:39:36;101814.16;;;14.14;73.95
50103;BME280;35993;52.604;10.078;2023-05-07T11:42:02;101814.03;;;13.89;75.40
50103;BME280;35993;52.604;10.078;2023-05-07T11:45:00;101821.38;;;13.82;77.07
50103;BME280;35993;52.604;10.078;2023-05-07T11:47:26;101836.72;;;13.76;78.08
50103;BME280;35993;52.604;10.078;2023-05-07T11:49:55;101825.81;;;13.56;77.82
50103;BME280;35993;52.604;10.078;2023-05-07T11:52:22;101827.28;;;13.52;78.10
50103;BME280;35993;52.604;10.078;2023-05-07T11:54:52;101830.19;;;13.50;77.88
50103;BME280;35993;52.604;10.078;2023-05-07T11:57:19;101825.38;;;13.46;78.05
50103;BME280;35993;52.604;10.078;2023-05-07T11:59:45;101823.72;;;13.65;77.60
50103;BME280;35993;52.604;10.078;2023-05-07T12:02:13;101819.28;;;13.77;77.56
50103;BME280;35993;52.604;10.078;2023-05-07T12:04:39;101824.06;;;13.95;77.20
50103;BME280;35993;52.604;10.078;2023-05-07T12:07:05;101823.25;;;13.88;76.55
50103;BME280;35993;52.604;10.078;2023-05-07T12:09:32;101819.66;;;14.01;75.87
50103;BME280;35993;52.604;10.078;2023-05-07T12:12:03;101812.09;;;14.09;75.41
50103;BME280;35993;52.604;10.078;2023-05-07T12:14:29;101820.50;;;13.95;75.33
50103;BME280;35993;52.604;10.078;2023-05-07T12:16:55;101819.47;;;13.96;75.77
50103;BME280;35993;52.604;10.078;2023-05-07T12:19:21;101812.09;;;13.96;74.94
50103;BME280;35993;52.604;10.078;2023-05-07T12:21:48;101810.66;;;14.00;76.11
50103;BME280;35993;52.604;10.078;2023-05-07T12:24:16;101825.09;;;14.14;76.01
50103;BME280;35993;52.604;10.078;2023-05-07T12:26:43;101819.03;;;14.05;75.35
50103;BME280;35993;52.604;10.078;2023-05-07T12:29:09;101828.69;;;14.08;75.59
50103;BME280;35993;52.604;10.078;2023-05-07T12:31:34;101822.19;;;13.96;75.22
50103;BME280;35993;52.604;10.078;2023-05-07T12:34:00;101826.78;;;14.08;75.11
50103;BME280;35993;52.604;10.078;2023-05-07T12:36:25;101830.16;;;14.11;75.37
50103;BME280;35993;52.604;10.078;2023-05-07T12:38:51;101823.81;;;14.17;74.56
50103;BME280;35993;52.604;10.078;2023-05-07T12:41:17;101824.91;;;14.02;74.14
50103;BME280;35993;52.604;10.078;2023-05-07T12:43:44;101822.34;;;14.14;74.97
50103;BME280;35993;52.604;10.078;2023-05-07T12:46:10;101817.09;;;14.19;74.45
50103;BME280;35993;52.604;10.078;2023-05-07T12:48:37;101818.56;;;14.29;73.90
50103;BME280;35993;52.604;10.078;2023-05-07T12:51:03;101821.47;;;14.40;74.37